createdAt,value
2023-01-22T00:01:04.254Z,101202.75
2023-01-22T00:03:30.753Z,101216.25
2023-01-22T00:05:57.529Z,101201.88
2023-01-22T00:08:23.976Z,101220.72
2023-01-22T00:10:51.378Z,101217.16
2023-01-22T00:13:20.147Z,101211.81
2023-01-22T00:15:47.631Z,101214.38
2023-01-22T00:18:14.783Z,101210.91
2023-01-22T00:20:41.812Z,101200.06
2023-01-22T00:23:08.379Z,101207.31
2023-01-22T00:25:34.899Z,101213.56
2023-01-22T00:28:01.569Z,101200.16
2023-01-22T00:30:29.664Z,101192.16
2023-01-22T00:32:56.492Z,101170.63
2023-01-22T00:35:23.627Z,101172.47
2023-01-22T00:37:50.234Z,101173.38
2023-01-22T00:40:17.821Z,101178.72
2023-01-22T00:42:44.745Z,101171.53
2023-01-22T00:45:14.041Z,101165.25
2023-01-22T00:47:42.016Z,101161.69
2023-01-22T00:50:10.010Z,101158.09
2023-01-22T00:52:36.471Z,101151.03
2023-01-22T00:55:03.655Z,101160.81
2023-01-22T00:57:30.174Z,101145.53
2023-01-22T00:59:56.865Z,101151.81
2023-01-22T01:02:23.355Z,101175.19
2023-01-22T01:04:51.663Z,101152.81
2023-01-22T01:07:18.105Z,101164.44
2023-01-22T01:09:44.597Z,101157.31
2023-01-22T01:12:11.137Z,101159.00
2023-01-22T01:14:38.753Z,101149.19
2023-01-22T01:17:05.460Z,101151.94
2023-01-22T01:19:33.879Z,101158.03
2023-01-22T01:22:02.081Z,101146.53
2023-01-22T01:24:28.780Z,101139.34
2023-01-22T01:26:55.964Z,101147.44
2023-01-22T01:29:22.490Z,101145.66
2023-01-22T01:31:49.208Z,101139.41
2023-01-22T01:34:15.755Z,101148.28
2023-01-22T01:36:49.892Z,101146.63
2023-01-22T01:39:18.123Z,101145.66
2023-01-22T01:41:44.912Z,101146.53
2023-01-22T01:44:14.597Z,101148.22
2023-01-22T01:46:44.633Z,101143.78
2023-01-22T01:49:17.988Z,101140.25
2023-01-22T01:51:45.236Z,101146.59
2023-01-22T01:54:12.505Z,101133.06
2023-01-22T01:56:44.370Z,101143.88
2023-01-22T01:59:14.222Z,101137.59
2023-01-22T02:01:41.262Z,101143.94
2023-01-22T02:04:08.016Z,101142.16
2023-01-22T02:06:34.861Z,101153.72
2023-01-22T02:09:02.290Z,101157.34
2023-01-22T02:11:30.539Z,101143.88
2023-01-22T02:14:02.064Z,101134.97
2023-01-22T02:16:28.657Z,101132.31
2023-01-22T02:18:55.216Z,101131.34
2023-01-22T02:21:34.794Z,101126.97
2023-01-22T02:24:01.911Z,101135.03
2023-01-22T02:26:29.156Z,101131.44
2023-01-22T02:28:55.670Z,101115.34
2023-01-22T02:34:08.681Z,101139.53
2023-01-22T02:36:38.768Z,101119.84
2023-01-22T02:39:05.819Z,101127.00
2023-01-22T02:41:32.588Z,101127.94
2023-01-22T02:43:59.321Z,101119.88
2023-01-22T02:46:26.801Z,101121.59
2023-01-22T02:48:53.447Z,101127.84
2023-01-22T02:51:20.134Z,101132.25
2023-01-22T02:53:47.986Z,101126.06
2023-01-22T02:56:14.538Z,101125.19
2023-01-22T02:58:41.100Z,101121.56
2023-01-22T03:01:09.644Z,101128.75
2023-01-22T03:03:36.266Z,101134.09
2023-01-22T03:06:02.904Z,101123.41
2023-01-22T03:08:29.396Z,101117.09
2023-01-22T03:10:59.228Z,101113.47
2023-01-22T03:13:25.701Z,101118.97
2023-01-22T03:15:52.261Z,101111.75
2023-01-22T03:18:19.041Z,101110.03
2023-01-22T03:20:45.599Z,101103.78
2023-01-22T03:23:12.343Z,101114.56
2023-01-22T03:25:38.998Z,101100.19
2023-01-22T03:28:06.837Z,101093.94
2023-01-22T03:30:33.315Z,101101.09
2023-01-22T03:32:59.933Z,101099.31
2023-01-22T03:35:26.490Z,101092.16
2023-01-22T03:37:52.984Z,101101.16
2023-01-22T03:40:19.644Z,101102.94
2023-01-22T03:42:46.392Z,101093.97
2023-01-22T03:45:14.280Z,101098.47
2023-01-22T03:47:40.732Z,101095.78
2023-01-22T03:50:08.620Z,101099.28
2023-01-22T03:52:35.086Z,101099.38
2023-01-22T03:55:01.556Z,101102.91
2023-01-22T03:57:30.578Z,101099.31
2023-01-22T03:59:57.038Z,101102.06
2023-01-22T04:02:25.089Z,101098.41
2023-01-22T04:04:51.596Z,101098.44
2023-01-22T04:07:18.263Z,101094.91
2023-01-22T04:09:44.956Z,101102.97
2023-01-22T04:12:11.879Z,101104.75
2023-01-22T04:14:38.437Z,101104.78
2023-01-22T04:17:04.955Z,101102.06
2023-01-22T04:19:32.824Z,101101.16
2023-01-22T04:21:59.572Z,101101.16
2023-01-22T04:24:26.150Z,101095.84
2023-01-22T04:26:52.713Z,101100.34
2023-01-22T04:29:19.427Z,101100.31
2023-01-22T04:31:46.065Z,101104.78
2023-01-22T04:34:12.581Z,101095.84
2023-01-22T04:36:40.573Z,101101.22
2023-01-22T04:39:07.073Z,101105.63
2023-01-22T04:41:33.552Z,101101.19
2023-01-22T04:44:00.755Z,101108.34
2023-01-22T04:46:27.366Z,101103.03
2023-01-22T04:48:53.892Z,101116.38
2023-01-22T04:51:20.531Z,101096.78
2023-01-22T04:53:48.642Z,101109.22
2023-01-22T04:56:15.104Z,101110.13
2023-01-22T04:58:41.723Z,101105.66
2023-01-22T05:01:08.173Z,101111.94
2023-01-22T05:03:34.738Z,101102.13
2023-01-22T05:06:03.100Z,101103.00
2023-01-22T05:08:29.614Z,101095.00
2023-01-22T05:11:01.734Z,101091.41
2023-01-22T05:13:28.209Z,101087.88
2023-01-22T05:15:54.703Z,101091.41
2023-01-22T05:18:21.232Z,101094.09
2023-01-22T05:20:47.816Z,101105.69
2023-01-22T05:23:14.418Z,101103.88
2023-01-22T05:25:40.956Z,101097.66
2023-01-22T05:28:08.903Z,101102.13
2023-01-22T05:30:35.425Z,101084.28
2023-01-22T05:33:01.964Z,101094.09
2023-01-22T05:35:28.440Z,101098.53
2023-01-22T05:37:56.323Z,101102.13
2023-01-22T05:40:22.794Z,101098.56
2023-01-22T05:42:49.306Z,101094.94
2023-01-22T05:45:17.223Z,101102.09
2023-01-22T05:47:43.705Z,101105.69
2023-01-22T05:50:10.987Z,101109.28
2023-01-22T05:52:37.463Z,101108.34
2023-01-22T05:55:04.475Z,101106.59
2023-01-22T05:57:31.102Z,101117.25
2023-01-22T05:59:57.580Z,101116.34
2023-01-22T06:02:25.489Z,101113.66
2023-01-22T06:04:51.997Z,101113.72
2023-01-22T06:07:18.521Z,101115.47
2023-01-22T06:09:45.011Z,101100.28
2023-01-22T06:12:11.546Z,101112.81
2023-01-22T06:14:38.020Z,101110.13
2023-01-22T06:17:04.609Z,101107.44
2023-01-22T06:19:32.489Z,101106.53
2023-01-22T06:21:59.155Z,101103.91
2023-01-22T06:24:25.879Z,101117.25
2023-01-22T06:26:52.385Z,101103.81
2023-01-22T06:29:18.964Z,101115.44
2023-01-22T06:31:45.799Z,101115.47
2023-01-22T06:34:12.338Z,101106.50
2023-01-22T06:36:43.395Z,101114.53
2023-01-22T06:39:10.267Z,101119.88
2023-01-22T06:41:36.854Z,101119.88
2023-01-22T06:44:03.590Z,101122.59
2023-01-22T06:46:30.070Z,101121.63
2023-01-22T06:48:56.798Z,101130.59
2023-01-22T06:51:23.367Z,101121.66
2023-01-22T06:53:51.267Z,101109.13
2023-01-22T06:56:17.927Z,101126.16
2023-01-22T06:58:44.431Z,101123.47
2023-01-22T07:01:11.545Z,101127.06
2023-01-22T07:03:38.220Z,101129.75
2023-01-22T07:06:05.453Z,101136.00
2023-01-22T07:08:33.900Z,101125.28
2023-01-22T07:11:02.208Z,101129.72
2023-01-22T07:13:29.077Z,101130.59
2023-01-22T07:15:55.902Z,101130.63
2023-01-22T07:18:22.449Z,101141.34
2023-01-22T07:20:49.300Z,101128.78
2023-01-22T07:23:16.367Z,101138.63
2023-01-22T07:25:42.887Z,101144.00
2023-01-22T07:28:14.164Z,101143.94
2023-01-22T07:30:41.598Z,101154.69
2023-01-22T07:33:10.837Z,101158.28
2023-01-22T07:35:37.372Z,101160.94
2023-01-22T07:38:03.861Z,101151.03
2023-01-22T07:40:30.365Z,101163.59
2023-01-22T07:42:56.906Z,101172.56
2023-01-22T07:45:25.340Z,101170.72
2023-01-22T07:47:52.641Z,101170.66
2023-01-22T07:50:19.436Z,101181.44
2023-01-22T07:52:47.111Z,101176.97
2023-01-22T07:55:14.152Z,101178.72
2023-01-22T07:57:40.759Z,101171.56
2023-01-22T08:00:09.629Z,101176.94
2023-01-22T08:02:37.882Z,101177.75
2023-01-22T08:05:05.209Z,101187.63
2023-01-22T08:07:31.906Z,101191.22
2023-01-22T08:09:58.443Z,101185.00
2023-01-22T08:12:24.913Z,101205.56
2023-01-22T08:14:52.010Z,101195.75
2023-01-22T08:17:18.479Z,101191.22
2023-01-22T08:19:46.309Z,101197.50
2023-01-22T08:22:12.837Z,101188.56
2023-01-22T08:24:39.339Z,101185.94
2023-01-22T08:27:05.819Z,101191.31
2023-01-22T08:29:32.554Z,101188.56
2023-01-22T08:31:59.367Z,101188.59
2023-01-22T08:34:26.102Z,101186.75
2023-01-22T08:36:54.998Z,101185.94
2023-01-22T08:39:21.639Z,101186.81
2023-01-22T08:41:48.190Z,101194.81
2023-01-22T08:44:14.891Z,101185.84
2023-01-22T08:46:41.487Z,101178.69
2023-01-22T08:49:08.064Z,101184.13
2023-01-22T08:51:35.133Z,101167.09
2023-01-22T08:54:03.162Z,101186.75
2023-01-22T08:56:29.650Z,101184.00
2023-01-22T08:58:56.293Z,101185.91
2023-01-22T09:01:22.997Z,101188.44
2023-01-22T09:03:49.552Z,101189.47
2023-01-22T09:06:16.081Z,101195.69
2023-01-22T09:08:42.548Z,101200.09
2023-01-22T09:11:10.369Z,101188.53
2023-01-22T09:13:37.010Z,101195.72
2023-01-22T09:16:03.926Z,101191.25
2023-01-22T09:18:30.369Z,101188.53
2023-01-22T09:20:56.856Z,101181.31
2023-01-22T09:23:23.435Z,101191.22
2023-01-22T09:25:50.161Z,101183.88
2023-01-22T09:28:18.010Z,101189.31
2023-01-22T09:30:44.505Z,101192.84
2023-01-22T09:33:11.090Z,101200.94
2023-01-22T09:35:37.592Z,101196.53
2023-01-22T09:38:04.193Z,101198.19
2023-01-22T09:40:36.332Z,101198.16
2023-01-22T09:43:06.128Z,101208.06
2023-01-22T09:45:38.062Z,101203.50
2023-01-22T09:48:07.991Z,101205.31
2023-01-22T09:50:34.729Z,101204.44
2023-01-22T09:53:04.621Z,101208.09
2023-01-22T09:55:44.812Z,101207.06
2023-01-22T09:58:15.863Z,101198.13
2023-01-22T10:00:48.800Z,101194.41
2023-01-22T10:03:22.881Z,101199.00
2023-01-22T10:05:52.878Z,101202.53
2023-01-22T10:08:22.490Z,101201.72
2023-01-22T10:10:50.724Z,101195.44
2023-01-22T10:13:19.206Z,101191.91
2023-01-22T10:15:48.001Z,101189.22
2023-01-22T10:18:26.620Z,101190.91
2023-01-22T10:20:54.298Z,101196.31
2023-01-22T10:23:23.519Z,101185.75
2023-01-22T10:25:53.732Z,101191.00
2023-01-22T10:28:25.206Z,101202.53
2023-01-22T10:30:53.220Z,101199.94
2023-01-22T10:33:22.775Z,101199.03
2023-01-22T10:35:52.397Z,101188.19
2023-01-22T10:38:24.181Z,101197.13
2023-01-22T10:40:57.494Z,101187.22
2023-01-22T10:43:31.981Z,101194.59
2023-01-22T10:46:05.817Z,101198.94
2023-01-22T10:48:32.599Z,101189.19
2023-01-22T10:51:03.192Z,101188.94
2023-01-22T10:53:33.071Z,101183.72
2023-01-22T10:56:02.514Z,101182.88
2023-01-22T10:58:32.905Z,101181.47
2023-01-22T11:01:04.054Z,101188.91
2023-01-22T11:03:33.542Z,101181.88
2023-01-22T11:06:03.119Z,101182.72
2023-01-22T11:08:45.624Z,101178.22
2023-01-22T11:11:16.029Z,101179.22
2023-01-22T11:14:02.563Z,101180.94
2023-01-22T11:16:34.880Z,101180.78
2023-01-22T11:19:05.909Z,101177.41
2023-01-22T11:21:35.486Z,101167.41
2023-01-22T11:24:06.454Z,101171.84
2023-01-22T11:26:59.581Z,101173.41
2023-01-22T11:29:48.443Z,101183.66
2023-01-22T11:32:35.700Z,101177.22
2023-01-22T11:35:14.014Z,101175.69
2023-01-22T11:37:54.063Z,101176.22
2023-01-22T11:40:27.013Z,101178.00
2023-01-22T11:43:08.922Z,101170.72
2023-01-22T11:46:06.346Z,101179.22
2023-01-22T11:48:55.868Z,101174.31
2023-01-22T11:51:31.016Z,101177.84
2023-01-22T11:54:23.731Z,101174.25
2023-01-22T11:57:04.791Z,101179.00
2023-01-22T11:59:48.526Z,101177.22
2023-01-22T12:02:43.421Z,101180.91
2023-01-22T12:05:21.653Z,101180.72
2023-01-22T12:08:16.658Z,101185.34
2023-01-22T12:11:21.891Z,101178.28
2023-01-22T12:14:09.213Z,101180.81
2023-01-22T12:16:44.664Z,101177.19
2023-01-22T12:19:42.871Z,101170.88
2023-01-22T12:22:24.924Z,101170.88
2023-01-22T12:24:58.573Z,101169.00
2023-01-22T12:27:30.126Z,101171.41
2023-01-22T12:30:02.399Z,101178.75
2023-01-22T12:32:33.688Z,101178.16
2023-01-22T12:35:05.044Z,101185.31
2023-01-22T12:37:41.008Z,101180.78
2023-01-22T12:40:30.023Z,101179.06
2023-01-22T12:43:00.647Z,101172.75
2023-01-22T12:45:36.306Z,101187.06
2023-01-22T12:48:09.963Z,101187.09
2023-01-22T12:50:36.862Z,101177.34
2023-01-22T12:53:19.863Z,101177.44
2023-01-22T12:55:58.200Z,101175.53
2023-01-22T12:58:27.247Z,101166.47
2023-01-22T13:01:00.966Z,101170.19
2023-01-22T13:03:32.877Z,101163.13
2023-01-22T13:06:00.957Z,101163.16
2023-01-22T13:08:38.632Z,101173.69
2023-01-22T13:11:07.634Z,101165.81
2023-01-22T13:13:38.882Z,101174.53
2023-01-22T13:16:16.563Z,101157.53
2023-01-22T13:18:47.319Z,101168.44
2023-01-22T13:21:16.257Z,101157.13
2023-01-22T13:23:46.337Z,101173.88
2023-01-22T13:26:17.583Z,101169.28
2023-01-22T13:28:50.707Z,101174.19
2023-01-22T13:31:18.370Z,101170.53
2023-01-22T13:33:58.907Z,101167.78
2023-01-22T13:36:26.192Z,101176.16
2023-01-22T13:38:56.286Z,101179.69
2023-01-22T13:41:30.874Z,101175.28
2023-01-22T13:43:57.661Z,101180.50
2023-01-22T13:46:24.918Z,101191.41
2023-01-22T13:49:04.355Z,101180.41
2023-01-22T13:51:33.555Z,101193.94
2023-01-22T13:54:02.844Z,101179.56
2023-01-22T13:56:29.999Z,101184.97
2023-01-22T13:59:19.337Z,101185.78
2023-01-22T14:01:46.417Z,101186.00
2023-01-22T14:04:28.514Z,101191.44
2023-01-22T14:06:55.874Z,101193.22
2023-01-22T14:09:29.174Z,101188.59
2023-01-22T14:11:56.766Z,101196.75
2023-01-22T14:14:23.449Z,101200.09
2023-01-22T14:16:50.132Z,101196.72
2023-01-22T14:19:17.047Z,101204.84
2023-01-22T14:21:43.575Z,101201.16
2023-01-22T14:24:10.365Z,101212.88
2023-01-22T14:26:38.653Z,101214.59
2023-01-22T14:29:07.332Z,101212.00
2023-01-22T14:31:34.002Z,101212.66
2023-01-22T14:34:00.561Z,101211.03
2023-01-22T14:36:27.094Z,101211.91
2023-01-22T14:38:53.689Z,101221.84
2023-01-22T14:41:20.367Z,101228.00
2023-01-22T14:43:48.304Z,101229.56
2023-01-22T14:46:15.084Z,101227.03
2023-01-22T14:48:41.627Z,101223.34
2023-01-22T14:51:09.660Z,101227.84
2023-01-22T14:53:36.322Z,101234.25
2023-01-22T14:56:02.938Z,101239.69
2023-01-22T14:58:29.471Z,101239.66
2023-01-22T15:00:57.457Z,101231.75
2023-01-22T15:03:24.099Z,101247.00
2023-01-22T15:05:51.243Z,101243.38
2023-01-22T15:08:17.780Z,101243.06
2023-01-22T15:10:45.189Z,101244.22
2023-01-22T15:13:11.785Z,101256.81
2023-01-22T15:15:38.628Z,101258.56
2023-01-22T15:18:06.499Z,101246.91
2023-01-22T15:20:33.597Z,101263.88
2023-01-22T15:23:00.333Z,101251.38
2023-01-22T15:25:36.940Z,101244.16
2023-01-22T15:28:18.141Z,101260.47
2023-01-22T15:30:47.281Z,101230.91
2023-01-22T15:33:15.393Z,101251.53
2023-01-22T15:35:43.658Z,101256.91
2023-01-22T15:38:14.192Z,101261.44
2023-01-22T15:40:40.892Z,101270.25
2023-01-22T15:43:16.201Z,101278.41
2023-01-22T15:45:42.751Z,101274.91
2023-01-22T15:48:09.344Z,101284.72
2023-01-22T15:50:37.295Z,101279.25
2023-01-22T15:53:03.873Z,101266.69
2023-01-22T15:55:30.771Z,101279.13
2023-01-22T15:57:57.302Z,101277.31
2023-01-22T16:00:24.062Z,101272.13
2023-01-22T16:02:50.651Z,101276.66
2023-01-22T16:05:17.217Z,101268.34
2023-01-22T16:07:52.005Z,101276.41
2023-01-22T16:10:19.101Z,101283.56
2023-01-22T16:12:57.304Z,101273.63
2023-01-22T16:15:29.266Z,101269.19
2023-01-22T16:17:55.963Z,101271.94
2023-01-22T16:20:27.700Z,101267.56
2023-01-22T16:23:15.997Z,101262.19
2023-01-22T16:25:42.521Z,101278.13
2023-01-22T16:28:09.108Z,101266.44
2023-01-22T16:30:36.254Z,101267.34
2023-01-22T16:33:17.264Z,101267.63
2023-01-22T16:35:47.674Z,101259.53
2023-01-22T16:38:31.510Z,101275.78
2023-01-22T16:41:08.642Z,101273.88
2023-01-22T16:43:35.334Z,101265.00
2023-01-22T16:46:57.565Z,101258.66
2023-01-22T16:49:29.435Z,101262.31
2023-01-22T16:51:58.010Z,101261.41
2023-01-22T16:54:28.707Z,101264.84
2023-01-22T16:57:00.597Z,101263.06
2023-01-22T16:59:28.155Z,101268.31
2023-01-22T17:02:04.716Z,101262.16
2023-01-22T17:04:58.574Z,101279.06
2023-01-22T17:07:33.657Z,101271.25
2023-01-22T17:10:09.340Z,101265.81
2023-01-22T17:15:20.033Z,101279.88
2023-01-22T17:17:46.756Z,101291.75
2023-01-22T17:20:13.456Z,101287.34
2023-01-22T17:22:43.292Z,101294.44
2023-01-22T17:25:14.286Z,101296.25
2023-01-22T17:27:41.333Z,101291.81
2023-01-22T17:30:09.989Z,101298.03
2023-01-22T17:32:36.477Z,101296.91
2023-01-22T17:35:03.430Z,101295.19
2023-01-22T17:37:54.653Z,101289.88
2023-01-22T17:40:22.539Z,101296.94
2023-01-22T17:42:49.045Z,101294.06
2023-01-22T17:45:30.683Z,101302.09
2023-01-22T17:47:57.613Z,101289.50
2023-01-22T17:50:24.153Z,101293.72
2023-01-22T17:52:50.696Z,101299.19
2023-01-22T17:55:17.705Z,101301.00
2023-01-22T17:57:45.868Z,101294.13
2023-01-22T18:00:16.103Z,101307.50
2023-01-22T18:02:42.648Z,101300.19
2023-01-22T18:05:10.527Z,101301.06
2023-01-22T18:07:37.036Z,101303.09
2023-01-22T18:10:04.031Z,101306.53
2023-01-22T18:12:30.538Z,101310.19
2023-01-22T18:14:59.702Z,101310.31
2023-01-22T18:17:27.610Z,101320.09
2023-01-22T18:19:54.125Z,101318.25
2023-01-22T18:22:20.546Z,101326.38
2023-01-22T18:24:47.059Z,101315.63
2023-01-22T18:27:13.752Z,101324.56
2023-01-22T18:29:40.276Z,101324.53
2023-01-22T18:32:08.197Z,101324.50
2023-01-22T18:34:34.968Z,101332.66
2023-01-22T18:37:01.523Z,101337.03
2023-01-22T18:39:28.110Z,101346.84
2023-01-22T18:41:54.659Z,101335.28
2023-01-22T18:44:21.270Z,101343.34
2023-01-22T18:46:47.804Z,101348.53
2023-01-22T18:49:18.681Z,101341.53
2023-01-22T18:51:45.707Z,101341.44
2023-01-22T18:54:12.532Z,101348.38
2023-01-22T18:56:39.191Z,101345.16
2023-01-22T18:59:06.425Z,101345.25
2023-01-22T19:01:35.339Z,101355.06
2023-01-22T19:04:04.270Z,101357.81
2023-01-22T19:06:36.723Z,101349.78
2023-01-22T19:09:05.577Z,101347.91
2023-01-22T19:11:33.926Z,101350.50
2023-01-22T19:14:01.306Z,101360.25
2023-01-22T19:16:28.160Z,101360.91
2023-01-22T19:18:56.058Z,101357.31
2023-01-22T19:21:24.215Z,101358.22
2023-01-22T19:23:54.237Z,101356.34
2023-01-22T19:26:23.624Z,101358.22
2023-01-22T19:28:53.454Z,101362.84
2023-01-22T19:31:23.492Z,101375.63
2023-01-22T19:33:52.165Z,101376.47
2023-01-22T19:36:20.134Z,101372.91
2023-01-22T19:38:47.156Z,101383.84
2023-01-22T19:41:15.041Z,101375.78
2023-01-22T19:43:42.629Z,101382.69
2023-01-22T19:46:12.072Z,101389.06
2023-01-22T19:48:39.614Z,101378.34
2023-01-22T19:51:08.620Z,101375.59
2023-01-22T19:53:36.029Z,101379.06
2023-01-22T19:56:03.240Z,101381.56
2023-01-22T19:58:31.244Z,101383.66
2023-01-22T20:00:57.823Z,101388.25
2023-01-22T20:03:25.106Z,101380.00
2023-01-22T20:05:51.838Z,101383.41
2023-01-22T20:08:18.402Z,101380.97
2023-01-22T20:10:44.962Z,101379.16
2023-01-22T20:13:11.848Z,101384.44
2023-01-22T20:15:40.714Z,101387.19
2023-01-22T20:18:08.737Z,101392.44
2023-01-22T20:21:06.541Z,101403.97
2023-01-22T20:23:41.399Z,101368.06
2023-01-22T20:26:30.295Z,101396.91
2023-01-22T20:32:20.565Z,101402.00
2023-01-22T20:38:14.608Z,101395.59
2023-01-22T20:40:41.219Z,101401.84
2023-01-22T20:43:07.716Z,101400.25
2023-01-22T20:45:34.270Z,101403.69
2023-01-22T20:48:02.233Z,101400.13
2023-01-22T20:50:28.785Z,101408.19
2023-01-22T20:52:55.647Z,101408.22
2023-01-22T20:55:22.159Z,101415.22
2023-01-22T20:57:48.683Z,101409.88
2023-01-22T21:00:15.689Z,101415.31
2023-01-22T21:02:42.224Z,101402.13
2023-01-22T21:05:10.383Z,101407.44
2023-01-22T21:07:36.939Z,101409.91
2023-01-22T21:10:03.926Z,101413.53
2023-01-22T21:12:30.407Z,101422.75
2023-01-22T21:14:57.494Z,101416.47
2023-01-22T21:17:24.265Z,101414.75
2023-01-22T21:19:50.828Z,101425.50
2023-01-22T21:22:21.253Z,101418.09
2023-01-22T21:24:47.793Z,101422.41
2023-01-22T21:27:14.294Z,101420.69
2023-01-22T21:29:41.074Z,101417.28
2023-01-22T21:32:07.721Z,101414.75
2023-01-22T21:34:34.267Z,101422.06
2023-01-22T21:37:00.993Z,101423.00
2023-01-22T21:39:30.006Z,101430.19
2023-01-22T21:41:57.270Z,101420.41
2023-01-22T21:44:24.208Z,101420.38
2023-01-22T21:46:51.251Z,101412.19
2023-01-22T21:49:20.015Z,101421.25
2023-01-22T21:51:48.155Z,101423.88
2023-01-22T21:54:16.267Z,101406.13
2023-01-22T21:56:44.321Z,101422.13
2023-01-22T21:59:11.276Z,101423.03
2023-01-22T22:01:37.926Z,101435.63
2023-01-22T22:04:06.055Z,101428.41
2023-01-22T22:06:34.228Z,101432.94
2023-01-22T22:09:04.847Z,101413.28
2023-01-22T22:11:31.365Z,101423.75
2023-01-22T22:13:59.287Z,101427.25
2023-01-22T22:16:26.164Z,101426.34
2023-01-22T22:18:56.195Z,101427.31
2023-01-22T22:21:22.947Z,101418.19
2023-01-22T22:23:49.967Z,101428.78
2023-01-22T22:26:17.210Z,101426.03
2023-01-22T22:28:44.250Z,101416.16
2023-01-22T22:31:14.154Z,101431.38
2023-01-22T22:33:41.864Z,101426.72
2023-01-22T22:36:09.089Z,101433.69
2023-01-22T22:38:36.124Z,101430.19
2023-01-22T22:41:05.352Z,101433.19
2023-01-22T22:43:34.280Z,101430.47
2023-01-22T22:46:02.731Z,101417.19
2023-01-22T22:48:30.795Z,101431.53
2023-01-22T22:50:57.825Z,101434.25
2023-01-22T22:53:24.673Z,101417.44
2023-01-22T22:55:51.243Z,101425.44
2023-01-22T22:58:17.766Z,101432.53
2023-01-22T23:00:44.345Z,101425.25
2023-01-22T23:03:11.062Z,101436.88
2023-01-22T23:05:39.379Z,101427.13
2023-01-22T23:08:06.083Z,101436.19
2023-01-22T23:10:32.633Z,101432.44
2023-01-22T23:13:02.187Z,101437.94
2023-01-22T23:15:30.131Z,101429.94
2023-01-22T23:17:59.676Z,101426.31
2023-01-22T23:20:27.176Z,101437.91
2023-01-22T23:22:57.721Z,101432.63
2023-01-22T23:25:27.348Z,101431.69
2023-01-22T23:27:54.039Z,101440.63
2023-01-22T23:30:20.989Z,101437.84
2023-01-22T23:32:47.663Z,101452.94
2023-01-22T23:35:14.214Z,101448.22
2023-01-22T23:37:40.921Z,101445.59
2023-01-22T23:40:10.614Z,101453.69
2023-01-22T23:42:37.078Z,101451.22
2023-01-22T23:45:04.616Z,101445.63
2023-01-22T23:47:31.350Z,101451.72
2023-01-22T23:49:57.951Z,101456.44
2023-01-22T23:52:24.533Z,101461.72
2023-01-22T23:54:51.046Z,101464.63
2023-01-22T23:57:18.928Z,101466.31
2023-01-22T23:59:48.711Z,101466.50
